aviador You're here:

YBRK Decoded Metar

ROCKHAMPTON in AUSTRALIA
Report Time2017-06-22 21:30:00
UTC Time2017-06-22 22:09:54
Flight Rules vfr VFR
Wind120° at 06 kt
W.Decomp.*RWY 15: 4.7 kt HW 3.8 kt LCW
RWY 04: 2.0 kt HW 5.7 kt RCW
W.Rank120° ranks 2
Current wind is below 120° avg. (7.7)
Visibility9999 m
Phenomena:N/A
Clouds:Overcast 063 Hf
Expected CloudBase > 1,600 ft AGL from Temp-Dew spread
Ceiling6,300 ft
Temp17°C (ISA +2)
Dew Point13°C (77% RH)
AAT15.8°C
QNH1021 hPa
Density Alt223 ft
Elevation46 ft
Report Wrong Elevation
Raw Report
YBRK 222130Z AUTO 12006KT 9999 // OVC063 17/13 Q1021
RF00.0/000.0=

Extra information for YBRK:More info

Metar Taf Metar & Taf Last 4 Metars F.Rules Stats Wind Profile Meteogram Temp Stats Airport Information Weather charts Add Link Nearby VenuesMetar ALERT Operation Metar Decoded Social comments